createdAt,value
2023-03-05T00:01:57.994Z,6.05
2023-03-05T00:05:02.600Z,5.40
2023-03-05T00:08:06.924Z,5.55
2023-03-05T00:11:14.181Z,5.57
2023-03-05T00:14:18.145Z,5.40
2023-03-05T00:17:22.550Z,5.65
2023-03-05T00:20:26.789Z,6.32
2023-03-05T00:23:31.004Z,5.70
2023-03-05T00:26:37.837Z,5.28
2023-03-05T00:29:42.384Z,5.43
2023-03-05T00:32:46.306Z,5.80
2023-03-05T00:35:50.476Z,6.05
2023-03-05T00:38:54.760Z,5.65
2023-03-05T00:41:59.104Z,8.88
2023-03-05T00:45:02.922Z,5.47
2023-03-05T00:48:07.488Z,5.45
2023-03-05T00:51:12.125Z,5.43
2023-03-05T00:54:16.408Z,6.55
2023-03-05T00:57:20.732Z,5.78
2023-03-05T01:00:24.652Z,7.40
2023-03-05T01:03:28.929Z,6.50
2023-03-05T01:06:33.942Z,8.18
2023-03-05T01:09:38.708Z,7.05
2023-03-05T01:12:43.332Z,5.80
2023-03-05T01:15:49.540Z,5.60
2023-03-05T01:18:53.879Z,6.93
2023-03-05T01:21:57.950Z,5.25
2023-03-05T01:25:02.378Z,5.80
2023-03-05T01:28:07.339Z,6.00
2023-03-05T01:31:12.594Z,6.07
2023-03-05T01:34:16.838Z,5.97
2023-03-05T01:37:21.412Z,6.00
2023-03-05T01:40:30.805Z,5.75
2023-03-05T01:43:34.669Z,5.97
2023-03-05T01:46:39.682Z,6.43
2023-03-05T01:49:43.717Z,5.93
2023-03-05T01:53:00.291Z,5.50
2023-03-05T01:56:05.063Z,5.68
2023-03-05T01:59:09.951Z,5.60
2023-03-05T02:02:15.132Z,6.37
2023-03-05T02:05:31.466Z,6.25
2023-03-05T02:08:36.460Z,5.55
2023-03-05T02:11:41.215Z,7.45
2023-03-05T02:14:52.109Z,5.93
2023-03-05T02:17:56.590Z,6.55
2023-03-05T02:21:10.173Z,5.22
2023-03-05T02:24:16.379Z,6.18
2023-03-05T02:27:26.176Z,6.32
2023-03-05T02:30:32.259Z,5.57
2023-03-05T02:33:36.912Z,5.88
2023-03-05T02:36:44.944Z,5.93
2023-03-05T02:39:49.107Z,5.70
2023-03-05T02:42:53.307Z,6.45
2023-03-05T02:45:58.381Z,6.40
2023-03-05T02:49:02.312Z,5.40
2023-03-05T02:52:06.858Z,5.80
2023-03-05T02:55:11.919Z,6.47
2023-03-05T02:58:17.722Z,5.97
2023-03-05T03:01:21.875Z,9.90
2023-03-05T03:04:26.796Z,14.07
2023-03-05T03:07:31.122Z,8.10
2023-03-05T03:10:35.765Z,7.47
2023-03-05T03:13:40.875Z,6.72
2023-03-05T03:16:45.831Z,5.25
2023-03-05T03:19:50.389Z,5.60
2023-03-05T03:22:54.335Z,6.40
2023-03-05T03:25:58.977Z,9.65
2023-03-05T03:29:04.278Z,5.45
2023-03-05T03:32:09.479Z,7.28
2023-03-05T03:35:14.994Z,7.25
2023-03-05T03:38:19.328Z,5.38
2023-03-05T03:41:23.244Z,24.00
2023-03-05T03:44:29.606Z,10.40
2023-03-05T03:47:34.188Z,5.55
2023-03-05T03:50:42.865Z,6.88
2023-03-05T03:53:47.201Z,6.03
2023-03-05T03:56:51.651Z,5.68
2023-03-05T03:59:56.315Z,11.45
2023-03-05T04:03:00.634Z,6.35
2023-03-05T04:06:05.469Z,8.48
2023-03-05T04:09:10.666Z,5.80
2023-03-05T04:12:18.867Z,5.05
2023-03-05T04:15:23.201Z,5.90
2023-03-05T04:18:27.701Z,5.93
2023-03-05T04:21:32.266Z,4.85
2023-03-05T04:24:36.653Z,5.00
2023-03-05T04:27:43.864Z,5.07
2023-03-05T04:30:48.469Z,5.00
2023-03-05T04:33:52.867Z,5.50
2023-03-05T04:36:57.276Z,8.95
2023-03-05T04:40:02.190Z,5.00
2023-03-05T04:43:06.703Z,5.50
2023-03-05T04:46:11.053Z,4.97
2023-03-05T04:49:16.656Z,6.35
2023-03-05T04:52:20.725Z,5.32
2023-03-05T04:55:25.050Z,5.35
2023-03-05T04:58:29.657Z,5.38
2023-03-05T05:01:35.991Z,5.60
2023-03-05T05:04:41.340Z,5.57
2023-03-05T05:07:45.794Z,4.60
2023-03-05T05:10:58.209Z,4.72
2023-03-05T05:14:02.731Z,5.57
2023-03-05T05:17:06.736Z,5.85
2023-03-05T05:20:13.278Z,5.07
2023-03-05T05:23:18.006Z,4.88
2023-03-05T05:26:22.321Z,4.32
2023-03-05T05:29:26.945Z,4.75
2023-03-05T05:32:31.371Z,4.60
2023-03-05T05:35:35.697Z,4.55
2023-03-05T05:38:40.530Z,6.07
2023-03-05T05:41:45.492Z,6.37
2023-03-05T05:44:49.785Z,7.45
2023-03-05T05:47:53.538Z,31.73
2023-03-05T05:50:58.381Z,7.35
2023-03-05T05:54:02.915Z,35.28
2023-03-05T05:57:07.697Z,36.03
2023-03-05T06:00:14.778Z,15.18
2023-03-05T06:03:22.156Z,10.20
2023-03-05T06:06:27.847Z,18.92
2023-03-05T06:09:31.731Z,10.55
2023-03-05T06:12:36.056Z,9.68
2023-03-05T06:15:40.500Z,5.43
2023-03-05T06:18:46.592Z,5.07
2023-03-05T06:21:50.839Z,4.70
2023-03-05T06:24:55.088Z,5.97
2023-03-05T06:27:59.568Z,11.15
2023-03-05T06:31:17.222Z,13.38
2023-03-05T06:34:21.593Z,8.38
2023-03-05T06:37:26.116Z,10.90
2023-03-05T06:40:30.789Z,11.98
2023-03-05T06:43:36.379Z,18.50
2023-03-05T06:46:42.151Z,22.05
2023-03-05T06:49:48.745Z,8.68
2023-03-05T06:52:53.327Z,6.38
2023-03-05T06:55:57.696Z,5.32
2023-03-05T06:59:01.810Z,4.97
2023-03-05T07:02:06.241Z,7.18
2023-03-05T07:05:11.008Z,13.75
2023-03-05T07:08:15.282Z,6.40
2023-03-05T07:11:22.156Z,5.40
2023-03-05T07:14:26.062Z,13.02
2023-03-05T07:17:31.072Z,7.60
2023-03-05T07:20:37.163Z,8.88
2023-03-05T07:23:41.406Z,18.75
2023-03-05T07:26:46.939Z,7.22
2023-03-05T07:29:51.874Z,5.72
2023-03-05T07:32:56.163Z,6.13
2023-03-05T07:36:00.326Z,5.60
2023-03-05T07:39:06.016Z,7.00
2023-03-05T07:42:10.500Z,6.03
2023-03-05T07:45:28.271Z,5.50
2023-03-05T07:48:32.585Z,5.65
2023-03-05T07:51:37.039Z,5.53
2023-03-05T07:54:41.609Z,5.65
2023-03-05T07:57:46.135Z,6.05
2023-03-05T08:00:50.675Z,5.53
2023-03-05T08:03:55.238Z,5.65
2023-03-05T08:07:00.695Z,11.02
2023-03-05T08:10:06.726Z,10.45
2023-03-05T08:13:11.045Z,7.75
2023-03-05T08:16:20.995Z,9.13
2023-03-05T08:19:25.448Z,9.60
2023-03-05T08:22:30.099Z,8.68
2023-03-05T08:25:38.712Z,7.20
2023-03-05T08:31:48.163Z,8.68
2023-03-05T08:34:53.078Z,16.65
2023-03-05T08:37:57.472Z,12.10
2023-03-05T08:41:02.300Z,8.93
2023-03-05T08:44:06.806Z,10.87
2023-03-05T08:47:11.652Z,10.82
2023-03-05T08:50:15.612Z,8.83
2023-03-05T08:53:19.568Z,9.27
2023-03-05T08:56:23.933Z,10.10
2023-03-05T08:59:28.466Z,9.30
2023-03-05T09:02:32.794Z,7.63
2023-03-05T09:05:39.039Z,16.67
2023-03-05T09:08:43.418Z,16.30
2023-03-05T09:11:48.820Z,12.07
2023-03-05T09:14:56.533Z,11.38
2023-03-05T09:18:00.826Z,14.43
2023-03-05T09:21:14.107Z,14.30
2023-03-05T09:24:18.438Z,12.93
2023-03-05T09:27:22.958Z,14.50
2023-03-05T09:30:28.749Z,13.82
2023-03-05T09:36:38.502Z,19.13
2023-03-05T09:39:43.200Z,19.48
2023-03-05T09:43:21.941Z,14.33
2023-03-05T09:46:31.009Z,20.50
2023-03-05T09:49:55.380Z,18.13
2023-03-05T09:53:17.619Z,9.77
2023-03-05T09:56:25.707Z,7.53
2023-03-05T09:59:30.021Z,11.63
2023-03-05T10:02:38.268Z,20.27
2023-03-05T10:06:04.454Z,14.13
2023-03-05T10:09:18.588Z,12.98
2023-03-05T10:12:39.940Z,9.68
2023-03-05T10:16:01.868Z,8.68
2023-03-05T10:19:24.431Z,9.77
2023-03-05T10:23:01.243Z,15.93
2023-03-05T10:26:13.117Z,16.58
2023-03-05T10:29:35.806Z,28.20
2023-03-05T10:33:33.708Z,42.50
2023-03-05T10:36:52.976Z,24.08
2023-03-05T10:40:21.625Z,25.65
2023-03-05T10:43:49.687Z,21.52
2023-03-05T10:47:00.820Z,27.33
2023-03-05T10:50:20.900Z,20.35
2023-03-05T10:53:37.855Z,22.42
2023-03-05T10:56:42.294Z,34.05
2023-03-05T10:59:53.661Z,36.15
2023-03-05T11:03:07.754Z,82.22
2023-03-05T11:06:14.647Z,62.35
2023-03-05T11:09:33.251Z,23.58
2023-03-05T11:12:39.830Z,20.00
2023-03-05T11:15:44.189Z,30.75
2023-03-05T11:18:49.026Z,15.25
2023-03-05T11:22:19.948Z,13.20
2023-03-05T11:25:27.139Z,8.55
2023-03-05T11:28:40.406Z,11.95
2023-03-05T11:31:44.702Z,9.55
2023-03-05T11:34:49.357Z,9.65
2023-03-05T11:38:03.225Z,12.88
2023-03-05T11:41:11.176Z,10.25
2023-03-05T11:44:29.400Z,10.43
2023-03-05T11:47:33.694Z,11.10
2023-03-05T11:50:42.677Z,17.80
2023-03-05T11:53:51.542Z,13.30
2023-03-05T11:56:56.717Z,12.25
2023-03-05T12:00:12.236Z,16.83
2023-03-05T12:03:24.559Z,15.95
2023-03-05T12:07:01.306Z,31.33
2023-03-05T12:10:06.305Z,28.35
2023-03-05T12:13:43.090Z,31.17
2023-03-05T12:16:54.658Z,33.20
2023-03-05T12:20:15.879Z,43.50
2023-03-05T12:23:25.101Z,48.15
2023-03-05T12:26:54.439Z,40.72
2023-03-05T12:30:02.412Z,19.45
2023-03-05T12:38:36.647Z,20.60
2023-03-05T12:41:41.778Z,68.05
2023-03-05T12:44:46.363Z,13.73
2023-03-05T12:48:13.032Z,30.05
2023-03-05T12:51:33.068Z,16.58
2023-03-05T12:54:46.734Z,22.15
2023-03-05T12:58:15.090Z,19.40
2023-03-05T13:02:16.713Z,27.15
2023-03-05T13:05:36.924Z,30.00
2023-03-05T13:08:41.441Z,35.33
2023-03-05T13:11:54.201Z,55.90
2023-03-05T13:15:04.282Z,31.58
2023-03-05T13:18:22.796Z,28.63
2023-03-05T13:21:39.162Z,28.55
2023-03-05T13:24:43.830Z,22.42
2023-03-05T13:27:48.105Z,24.83
2023-03-05T13:31:03.463Z,29.73
2023-03-05T13:34:14.925Z,15.50
2023-03-05T13:37:23.002Z,16.55
2023-03-05T13:40:32.881Z,13.80
2023-03-05T13:43:51.444Z,17.27
2023-03-05T13:47:07.075Z,19.98
2023-03-05T13:50:25.007Z,34.75
2023-03-05T13:53:34.878Z,10.13
2023-03-05T13:56:49.805Z,19.65
2023-03-05T13:59:54.937Z,16.45
2023-03-05T14:03:22.002Z,19.48
2023-03-05T14:06:29.288Z,11.00
2023-03-05T14:09:48.055Z,12.95
2023-03-05T14:12:52.978Z,17.50
2023-03-05T14:16:28.613Z,15.97
2023-03-05T14:19:35.700Z,15.40
2023-03-05T14:22:42.841Z,12.23
2023-03-05T14:25:50.403Z,12.00
2023-03-05T14:28:57.706Z,13.55
2023-03-05T14:32:09.449Z,13.48
2023-03-05T14:35:25.495Z,17.48
2023-03-05T14:38:32.879Z,16.35
2023-03-05T14:41:43.879Z,14.20
2023-03-05T14:44:48.447Z,12.25
2023-03-05T14:47:54.460Z,14.43
2023-03-05T14:50:59.185Z,10.80
2023-03-05T14:54:03.531Z,10.97
2023-03-05T14:57:07.964Z,14.70
2023-03-05T15:00:26.924Z,15.15
2023-03-05T15:03:33.878Z,14.05
2023-03-05T15:06:41.324Z,11.43
2023-03-05T15:09:45.712Z,15.05
2023-03-05T15:12:57.224Z,11.27
2023-03-05T15:16:07.398Z,7.85
2023-03-05T15:19:14.904Z,8.80
2023-03-05T15:22:19.368Z,8.52
2023-03-05T15:25:27.571Z,9.00
2023-03-05T15:28:31.844Z,8.90
2023-03-05T15:31:39.517Z,10.02
2023-03-05T15:34:44.232Z,8.60
2023-03-05T15:37:49.101Z,8.52
2023-03-05T15:40:53.346Z,8.90
2023-03-05T15:43:57.322Z,8.90
2023-03-05T15:47:01.659Z,8.23
2023-03-05T15:50:07.063Z,8.75
2023-03-05T15:53:12.986Z,8.50
2023-03-05T15:56:18.838Z,9.60
2023-03-05T15:59:23.208Z,9.82
2023-03-05T16:02:27.659Z,9.65
2023-03-05T16:05:36.880Z,9.23
2023-03-05T16:08:44.663Z,8.57
2023-03-05T16:11:52.277Z,8.82
2023-03-05T16:14:56.903Z,10.48
2023-03-05T16:18:05.656Z,10.18
2023-03-05T16:21:11.019Z,9.10
2023-03-05T16:24:15.596Z,8.70
2023-03-05T16:27:20.355Z,9.38
2023-03-05T16:30:24.358Z,11.05
2023-03-05T16:33:28.707Z,9.93
2023-03-05T16:36:36.165Z,9.70
2023-03-05T16:39:41.641Z,10.18
2023-03-05T16:42:46.169Z,9.05
2023-03-05T16:45:50.486Z,9.45
2023-03-05T16:48:55.325Z,9.52
2023-03-05T16:52:06.212Z,9.90
2023-03-05T16:55:20.860Z,9.25
2023-03-05T16:58:25.247Z,10.10
2023-03-05T17:01:31.163Z,9.45
2023-03-05T17:04:36.693Z,9.10
2023-03-05T17:07:41.073Z,9.05
2023-03-05T17:10:45.005Z,10.20
2023-03-05T17:13:49.322Z,10.82
2023-03-05T17:16:53.988Z,11.43
2023-03-05T17:19:58.523Z,12.25
2023-03-05T17:23:03.520Z,11.60
2023-03-05T17:26:13.923Z,10.33
2023-03-05T17:29:19.819Z,10.05
2023-03-05T17:32:24.228Z,11.10
2023-03-05T17:35:28.751Z,10.82
2023-03-05T17:38:33.916Z,12.10
2023-03-05T17:41:38.383Z,11.65
2023-03-05T17:44:43.497Z,9.93
2023-03-05T17:47:48.014Z,9.75
2023-03-05T17:50:52.480Z,10.38
2023-03-05T17:53:57.256Z,11.38
2023-03-05T17:57:01.712Z,11.50
2023-03-05T18:00:07.236Z,11.07
2023-03-05T18:03:16.281Z,10.27
2023-03-05T18:06:20.724Z,10.88
2023-03-05T18:09:28.207Z,9.48
2023-03-05T18:12:34.186Z,10.98
2023-03-05T18:15:42.383Z,9.98
2023-03-05T18:18:46.910Z,10.65
2023-03-05T18:21:52.565Z,10.87
2023-03-05T18:24:56.966Z,9.65
2023-03-05T18:28:03.542Z,10.15
2023-03-05T18:31:08.828Z,10.57
2023-03-05T18:34:13.210Z,10.35
2023-03-05T18:37:17.510Z,9.65
2023-03-05T18:40:24.408Z,10.00
2023-03-05T18:43:29.245Z,10.80
2023-03-05T18:46:33.578Z,12.52
2023-03-05T18:49:37.904Z,12.10
2023-03-05T18:52:43.493Z,10.95
2023-03-05T18:58:54.093Z,10.10
2023-03-05T19:01:57.931Z,10.93
2023-03-05T19:05:02.808Z,11.18
2023-03-05T19:08:10.606Z,10.77
2023-03-05T19:11:18.338Z,10.35
2023-03-05T19:14:22.918Z,10.75
2023-03-05T19:17:27.922Z,10.23
2023-03-05T19:20:32.866Z,11.18
2023-03-05T19:23:37.758Z,10.60
2023-03-05T19:26:42.617Z,11.17
2023-03-05T19:29:47.007Z,10.93
2023-03-05T19:32:51.608Z,11.15
2023-03-05T19:35:56.234Z,10.88
2023-03-05T19:39:00.846Z,10.38
2023-03-05T19:42:05.640Z,11.25
2023-03-05T19:45:10.917Z,10.98
2023-03-05T19:48:15.194Z,10.95
2023-03-05T19:51:22.193Z,10.50
2023-03-05T19:54:26.570Z,11.48
2023-03-05T19:57:31.155Z,14.38
2023-03-05T20:00:35.415Z,11.23
2023-03-05T20:03:39.646Z,11.48
2023-03-05T20:06:44.098Z,11.27
2023-03-05T20:09:50.992Z,15.45
2023-03-05T20:12:55.455Z,10.57
2023-03-05T20:16:00.219Z,22.92
2023-03-05T20:19:06.484Z,24.15
2023-03-05T20:22:11.033Z,22.35
2023-03-05T20:25:17.692Z,21.00
2023-03-05T20:28:26.693Z,31.85
2023-03-05T20:31:31.041Z,35.83
2023-03-05T20:34:35.442Z,30.90
2023-03-05T20:37:50.138Z,25.05
2023-03-05T20:41:00.305Z,20.20
2023-03-05T20:44:04.603Z,27.85
2023-03-05T20:47:26.799Z,26.48
2023-03-05T20:50:30.956Z,21.42
2023-03-05T20:53:34.875Z,17.70
2023-03-05T20:56:39.037Z,16.77
2023-03-05T20:59:43.260Z,17.05
2023-03-05T21:02:47.671Z,17.83
2023-03-05T21:05:51.966Z,29.13
2023-03-05T21:08:56.564Z,43.40
2023-03-05T21:12:00.547Z,17.35
2023-03-05T21:15:04.644Z,22.40
2023-03-05T21:18:08.636Z,24.40
2023-03-05T21:21:12.993Z,28.00
2023-03-05T21:24:18.638Z,26.17
2023-03-05T21:27:23.163Z,20.88
2023-03-05T21:30:35.421Z,25.38
2023-03-05T21:33:39.367Z,22.90
2023-03-05T21:36:43.166Z,24.00
2023-03-05T21:39:47.540Z,22.05
2023-03-05T21:42:51.658Z,18.80
2023-03-05T21:45:57.969Z,12.20
2023-03-05T21:49:02.548Z,12.93
2023-03-05T21:52:10.412Z,13.77
2023-03-05T21:55:18.696Z,11.52
2023-03-05T21:58:23.006Z,15.20
2023-03-05T22:01:27.342Z,13.77
2023-03-05T22:04:31.358Z,13.63
2023-03-05T22:07:35.713Z,13.02
2023-03-05T22:10:41.656Z,10.88
2023-03-05T22:13:46.298Z,12.05
2023-03-05T22:16:55.701Z,13.95
2023-03-05T22:20:00.216Z,12.85
2023-03-05T22:23:05.389Z,12.50
2023-03-05T22:26:09.688Z,11.77
2023-03-05T22:29:14.096Z,12.48
2023-03-05T22:32:18.841Z,12.15
2023-03-05T22:35:23.424Z,11.52
2023-03-05T22:38:28.247Z,11.35
2023-03-05T22:41:32.643Z,11.33
2023-03-05T22:44:36.488Z,13.30
2023-03-05T22:47:41.066Z,13.18
2023-03-05T22:50:45.527Z,16.30
2023-03-05T22:53:49.972Z,11.65
2023-03-05T22:56:54.441Z,12.00
2023-03-05T22:59:59.203Z,12.38
2023-03-05T23:03:04.159Z,12.70
2023-03-05T23:06:08.462Z,12.93
2023-03-05T23:09:12.748Z,14.35
2023-03-05T23:12:17.758Z,17.13
2023-03-05T23:15:32.170Z,12.60
2023-03-05T23:18:36.410Z,15.27
2023-03-05T23:21:40.396Z,11.95
2023-03-05T23:24:45.523Z,15.18
2023-03-05T23:27:50.495Z,14.47
2023-03-05T23:30:54.850Z,12.80
2023-03-05T23:33:59.392Z,13.10
2023-03-05T23:37:04.034Z,12.00
2023-03-05T23:40:10.475Z,12.65
2023-03-05T23:43:20.371Z,13.15
2023-03-05T23:46:25.051Z,14.90
2023-03-05T23:49:29.821Z,11.38
2023-03-05T23:52:34.329Z,12.35
2023-03-05T23:55:43.303Z,11.18
2023-03-05T23:58:49.952Z,12.60
